Aeroporto :
LOGIN :

Iscrizione | Disclaimer

   EN    FR    IT 

 










Sommario :    VFR   VFR Marginale   IFR   IFR Intensivo   IFR Molto Intensivo
Visibilità : 
Base nubi : 
>= 8 km
>= 3000ft
5 / 8 km
1000 / 3000 ft
1500m / 5 km
500 / 1000 ft
800 / 1500m
200 / 500 ft
< 800m
< 200 ft
Simboli :   Temporali  Nebbia  Neve Forte  Precipitazioni Forti  Vento > 20 kt
SIGMETs :   Varie  Temporali  Ghiacco  Turbolenza  Onda orograficha  Ceneri Vulcaniche






- Altitudine del aeroporto : 726 ft
- Codice IATA : DIJ


LFSD - Dijon

ULTIMO METAR :
  • 182100Z AUTO 10005KT 9999 SCT048 01/01 Q1028

METARs OBSOLETI :
  • 182030Z AUTO 08004KT 350V100 9999 SCT046 01/00 Q1028
  • 182000Z AUTO 35004KT CAVOK 00/M00 Q1028
  • 181930Z AUTO 35004KT CAVOK 00/M00 Q1028
  • 181900Z AUTO 08006KT CAVOK 02/01 Q1028
  • 181830Z AUTO 08004KT CAVOK 02/01 Q1028

Previsioni scadute.



MetMap, La meteo Aeronautica in un colpo d'occhio ! - Copyright ORBIFLY Dicembre 2007 - Disclaimer

ORBIFLY MET'MAP TEAM :

Programmazione e sviluppo : Alexandra Zaïnal
Concezione : Baudouin d'Aumeries
Aiuto per la programmazione : Marc-Olivier Méhu
Supporto tecnico e logistico : Manuel Goepfert
Aiuto per la traduzione : Arnaldo La Scala

Contatto : metmap@orbifly.com




FONTI E CREDITI :

   NOAA